createdAt,value
2019-05-29T00:01:28.889Z,11.51
2019-05-29T00:03:55.026Z,11.50
2019-05-29T00:06:21.043Z,11.48
2019-05-29T00:08:47.210Z,11.47
2019-05-29T00:11:14.088Z,11.46
2019-05-29T00:13:40.354Z,11.46
2019-05-29T00:16:06.714Z,11.46
2019-05-29T00:18:32.730Z,11.45
2019-05-29T00:20:58.754Z,11.43
2019-05-29T00:23:24.820Z,11.42
2019-05-29T00:25:50.979Z,11.39
2019-05-29T00:28:16.981Z,11.37
2019-05-29T00:30:43.030Z,11.35
2019-05-29T00:33:10.117Z,11.32
2019-05-29T00:35:36.135Z,11.32
2019-05-29T00:38:02.487Z,11.29
2019-05-29T00:40:28.695Z,11.28
2019-05-29T00:42:54.944Z,11.24
2019-05-29T00:45:22.923Z,11.26
2019-05-29T00:47:49.520Z,11.27
2019-05-29T00:50:16.139Z,11.26
2019-05-29T00:52:42.327Z,11.26
2019-05-29T00:55:09.025Z,11.23
2019-05-29T00:57:35.100Z,11.22
2019-05-29T01:00:01.173Z,11.20
2019-05-29T01:02:27.749Z,11.20
2019-05-29T01:04:53.726Z,11.20
2019-05-29T01:07:20.519Z,11.18
2019-05-29T01:09:46.705Z,11.17
2019-05-29T01:12:12.861Z,11.16
2019-05-29T01:14:49.596Z,11.16
2019-05-29T01:17:07.377Z,11.13
2019-05-29T01:19:33.821Z,11.13
2019-05-29T01:22:00.342Z,11.14
2019-05-29T01:24:26.828Z,11.14
2019-05-29T01:26:52.969Z,11.13
2019-05-29T01:29:19.514Z,11.14
2019-05-29T01:31:46.159Z,11.13
2019-05-29T01:34:12.216Z,11.14
2019-05-29T01:36:38.336Z,11.12
2019-05-29T01:39:05.729Z,11.12
2019-05-29T01:41:31.877Z,11.12
2019-05-29T01:43:58.144Z,11.13
2019-05-29T01:46:24.502Z,11.14
2019-05-29T01:48:50.550Z,11.14
2019-05-29T01:51:17.446Z,11.16
2019-05-29T01:53:44.042Z,11.14
2019-05-29T01:56:10.184Z,11.16
2019-05-29T01:58:37.703Z,11.17
2019-05-29T02:01:04.747Z,11.18
2019-05-29T02:03:31.427Z,11.19
2019-05-29T02:05:57.436Z,11.17
2019-05-29T02:08:24.281Z,11.15
2019-05-29T02:10:50.549Z,11.14
2019-05-29T02:13:17.254Z,11.15
2019-05-29T02:15:43.406Z,11.14
2019-05-29T02:18:09.556Z,11.16
2019-05-29T02:20:35.906Z,11.13
2019-05-29T02:23:02.060Z,11.08
2019-05-29T02:25:27.977Z,11.07
2019-05-29T02:27:54.351Z,11.00
2019-05-29T02:30:23.109Z,10.93
2019-05-29T02:32:48.953Z,10.90
2019-05-29T02:35:15.070Z,10.83
2019-05-29T02:37:41.104Z,10.74
2019-05-29T02:40:07.959Z,10.69
2019-05-29T02:42:34.263Z,10.60
2019-05-29T02:45:00.502Z,10.53
2019-05-29T02:47:28.066Z,10.49
2019-05-29T02:49:54.519Z,10.45
2019-05-29T02:52:21.861Z,10.42
2019-05-29T02:54:48.209Z,10.39
2019-05-29T02:57:14.425Z,10.39
2019-05-29T02:59:41.433Z,10.37
2019-05-29T03:02:07.705Z,10.35
2019-05-29T03:04:33.754Z,10.33
2019-05-29T03:07:00.234Z,10.29
2019-05-29T03:09:26.674Z,10.26
2019-05-29T03:11:53.735Z,10.24
2019-05-29T03:14:19.902Z,10.22
2019-05-29T03:16:45.927Z,10.22
2019-05-29T03:19:11.835Z,10.21
2019-05-29T03:21:38.591Z,10.20
2019-05-29T03:24:05.085Z,10.18
2019-05-29T03:26:32.930Z,10.17
2019-05-29T03:28:59.287Z,10.15
2019-05-29T03:31:29.367Z,10.11
2019-05-29T03:33:53.599Z,10.05
2019-05-29T03:36:19.733Z,9.98
2019-05-29T03:38:45.902Z,9.95
2019-05-29T03:41:12.272Z,9.92
2019-05-29T03:43:38.872Z,9.91
2019-05-29T03:46:05.229Z,8.67
2019-05-29T03:48:32.413Z,9.84
2019-05-29T03:50:59.724Z,9.83
2019-05-29T03:53:27.085Z,9.82
2019-05-29T03:55:53.412Z,9.81
2019-05-29T03:58:19.523Z,9.82
2019-05-29T04:00:48.187Z,9.81
2019-05-29T04:03:14.132Z,9.83
2019-05-29T04:05:40.325Z,9.84
2019-05-29T04:08:06.515Z,9.84
2019-05-29T04:10:35.461Z,9.83
2019-05-29T04:13:02.146Z,9.81
2019-05-29T04:15:31.621Z,9.78
2019-05-29T04:17:58.866Z,9.77
2019-05-29T04:20:24.916Z,9.78
2019-05-29T04:22:51.727Z,9.78
2019-05-29T04:25:18.314Z,9.77
2019-05-29T04:27:47.009Z,9.75
2019-05-29T04:32:34.240Z,7.83
2019-05-29T04:35:00.735Z,9.61
2019-05-29T04:37:28.226Z,9.59
2019-05-29T04:39:54.625Z,9.59
2019-05-29T04:42:21.043Z,9.57
2019-05-29T04:44:47.238Z,9.55
2019-05-29T04:47:13.247Z,9.53
2019-05-29T04:49:40.316Z,9.51
2019-05-29T04:52:06.865Z,9.49
2019-05-29T04:54:35.259Z,9.47
2019-05-29T04:57:02.281Z,9.45
2019-05-29T04:59:28.882Z,8.37
2019-05-29T05:01:55.537Z,9.41
2019-05-29T05:04:21.563Z,9.38
2019-05-29T05:06:47.740Z,9.37
2019-05-29T05:09:13.898Z,9.35
2019-05-29T05:11:40.246Z,9.39
2019-05-29T05:14:06.429Z,9.44
2019-05-29T05:16:33.678Z,9.45
2019-05-29T05:19:00.192Z,9.47
2019-05-29T05:21:26.580Z,9.49
2019-05-29T05:23:52.660Z,9.51
2019-05-29T05:26:19.221Z,9.54
2019-05-29T05:28:46.398Z,9.58
2019-05-29T05:31:12.850Z,9.61
2019-05-29T05:33:39.323Z,9.63
2019-05-29T05:36:05.466Z,9.61
2019-05-29T05:38:32.590Z,9.61
2019-05-29T05:40:59.036Z,9.61
2019-05-29T05:43:25.302Z,9.60
2019-05-29T05:45:51.490Z,9.63
2019-05-29T05:48:18.196Z,9.63
2019-05-29T05:50:44.498Z,9.67
2019-05-29T05:53:10.655Z,9.70
2019-05-29T05:55:37.686Z,9.70
2019-05-29T05:58:04.257Z,9.73
2019-05-29T06:00:31.890Z,9.47
2019-05-29T06:02:58.354Z,9.82
2019-05-29T06:05:24.803Z,9.84
2019-05-29T06:07:50.945Z,9.81
2019-05-29T06:10:17.119Z,9.79
2019-05-29T06:12:43.298Z,9.77
2019-05-29T06:15:10.059Z,8.35
2019-05-29T06:17:36.559Z,9.84
2019-05-29T06:20:06.680Z,9.86
2019-05-29T06:22:34.903Z,9.89
2019-05-29T06:25:01.662Z,9.92
2019-05-29T06:27:28.205Z,9.94
2019-05-29T06:29:54.368Z,10.02
2019-05-29T06:32:20.752Z,10.09
2019-05-29T06:34:46.781Z,10.16
2019-05-29T06:37:13.057Z,10.20
2019-05-29T06:39:39.728Z,10.23
2019-05-29T06:42:05.853Z,10.21
2019-05-29T06:44:32.153Z,10.24
2019-05-29T06:46:58.971Z,10.27
2019-05-29T06:49:25.233Z,10.30
2019-05-29T06:51:51.253Z,8.92
2019-05-29T06:54:17.790Z,10.36
2019-05-29T06:56:43.987Z,10.40
2019-05-29T06:59:10.200Z,10.40
2019-05-29T07:01:37.402Z,10.37
2019-05-29T07:04:11.773Z,10.33
2019-05-29T07:06:32.007Z,10.30
2019-05-29T07:08:58.406Z,10.30
2019-05-29T07:11:24.542Z,10.25
2019-05-29T07:13:51.056Z,10.26
2019-05-29T07:16:17.129Z,10.26
2019-05-29T07:19:20.526Z,10.36
2019-05-29T07:21:11.162Z,10.46
2019-05-29T07:23:38.712Z,10.51
2019-05-29T07:26:05.208Z,10.44
2019-05-29T07:28:31.339Z,10.41
2019-05-29T07:31:02.212Z,10.44
2019-05-29T07:33:25.433Z,10.54
2019-05-29T07:35:51.571Z,10.64
2019-05-29T07:38:17.993Z,10.69
2019-05-29T07:40:47.044Z,10.73
2019-05-29T07:43:11.895Z,10.76
2019-05-29T07:45:38.336Z,10.82
2019-05-29T07:48:05.563Z,10.91
2019-05-29T07:50:31.871Z,11.06
2019-05-29T07:52:58.251Z,11.35
2019-05-29T07:55:24.280Z,11.66
2019-05-29T07:57:50.481Z,11.96
2019-05-29T08:00:17.275Z,12.16
2019-05-29T08:02:43.474Z,12.30
2019-05-29T08:05:10.769Z,11.57
2019-05-29T08:07:36.847Z,12.48
2019-05-29T08:10:05.233Z,12.59
2019-05-29T08:12:31.960Z,12.80
2019-05-29T08:14:58.124Z,13.01
2019-05-29T08:17:25.197Z,13.09
2019-05-29T08:20:05.357Z,13.10
2019-05-29T08:22:33.829Z,13.37
2019-05-29T08:24:49.364Z,13.57
2019-05-29T08:27:15.907Z,13.55
2019-05-29T08:29:42.603Z,13.46
2019-05-29T08:32:09.077Z,13.56
2019-05-29T08:34:35.321Z,13.58
2019-05-29T08:37:07.136Z,13.61
2019-05-29T08:39:36.198Z,13.77
2019-05-29T08:42:21.365Z,13.91
2019-05-29T08:44:27.367Z,13.94
2019-05-29T08:47:08.506Z,14.01
2019-05-29T08:49:22.504Z,14.10
2019-05-29T08:51:50.058Z,13.99
2019-05-29T08:54:23.826Z,13.70
2019-05-29T08:56:46.241Z,13.47
2019-05-29T08:59:12.817Z,12.98
2019-05-29T09:01:39.495Z,13.10
2019-05-29T09:04:05.928Z,13.21
2019-05-29T09:06:32.212Z,13.50
2019-05-29T09:09:03.717Z,13.90
2019-05-29T09:11:30.200Z,13.10
2019-05-29T09:13:56.232Z,14.71
2019-05-29T09:16:24.023Z,15.21
2019-05-29T09:18:51.915Z,15.65
2019-05-29T09:21:19.191Z,16.15
2019-05-29T09:23:47.318Z,16.61
2019-05-29T09:26:19.158Z,16.72
2019-05-29T09:28:42.963Z,16.38
2019-05-29T09:31:10.048Z,16.02
2019-05-29T09:33:36.433Z,15.98
2019-05-29T09:36:04.143Z,16.29
2019-05-29T09:38:31.956Z,16.69
2019-05-29T09:40:58.388Z,16.82
2019-05-29T09:43:30.476Z,17.17
2019-05-29T09:45:55.467Z,17.44
2019-05-29T09:48:26.209Z,17.54
2019-05-29T09:50:52.096Z,17.58
2019-05-29T09:53:18.912Z,17.41
2019-05-29T09:55:46.250Z,16.98
2019-05-29T09:58:12.929Z,15.58
2019-05-29T10:00:40.172Z,16.78
2019-05-29T10:03:06.882Z,17.28
2019-05-29T10:05:33.528Z,17.91
2019-05-29T10:08:02.106Z,18.69
2019-05-29T10:10:29.722Z,19.15
2019-05-29T10:12:56.475Z,19.53
2019-05-29T10:15:24.492Z,19.64
2019-05-29T10:17:50.750Z,19.54
2019-05-29T10:20:17.712Z,19.48
2019-05-29T10:22:44.269Z,18.07
2019-05-29T10:25:12.378Z,19.10
2019-05-29T10:27:39.219Z,19.50
2019-05-29T10:30:07.843Z,20.18
2019-05-29T10:32:36.447Z,20.55
2019-05-29T10:35:05.807Z,20.65
2019-05-29T10:37:32.356Z,20.78
2019-05-29T10:39:58.632Z,19.56
2019-05-29T10:42:25.395Z,20.09
2019-05-29T10:44:54.986Z,19.87
2019-05-29T10:47:22.669Z,20.08
2019-05-29T10:49:49.777Z,20.52
2019-05-29T10:52:18.627Z,20.49
2019-05-29T10:54:48.141Z,19.85
2019-05-29T10:57:17.754Z,18.93
2019-05-29T10:59:46.637Z,17.19
2019-05-29T11:02:13.840Z,17.81
2019-05-29T11:04:41.187Z,17.46
2019-05-29T11:07:08.030Z,17.61
2019-05-29T11:09:44.351Z,18.25
2019-05-29T11:12:05.228Z,19.02
2019-05-29T11:14:32.505Z,19.14
2019-05-29T11:17:00.079Z,18.94
2019-05-29T11:19:27.421Z,18.87
2019-05-29T11:22:05.681Z,19.24
2019-05-29T11:24:24.686Z,19.80
2019-05-29T11:26:54.688Z,19.90
2019-05-29T11:29:22.952Z,20.11
2019-05-29T11:31:50.650Z,20.16
2019-05-29T11:34:17.048Z,20.08
2019-05-29T11:36:45.587Z,20.01
2019-05-29T11:39:13.335Z,18.99
2019-05-29T11:41:40.444Z,19.93
2019-05-29T11:44:07.844Z,19.60
2019-05-29T11:46:34.333Z,19.47
2019-05-29T11:49:03.491Z,19.59
2019-05-29T11:51:29.971Z,19.92
2019-05-29T11:53:57.528Z,19.89
2019-05-29T11:56:26.096Z,19.56
2019-05-29T11:58:52.960Z,19.63
2019-05-29T12:01:25.375Z,20.05
2019-05-29T12:04:13.208Z,20.68
2019-05-29T12:06:24.319Z,21.53
2019-05-29T12:08:53.508Z,21.97
2019-05-29T12:11:19.869Z,21.76
2019-05-29T12:13:47.609Z,21.33
2019-05-29T12:16:14.364Z,19.78
2019-05-29T12:18:40.847Z,21.21
2019-05-29T12:21:07.020Z,21.99
2019-05-29T12:23:34.220Z,22.40
2019-05-29T12:26:20.049Z,21.62
2019-05-29T12:28:28.987Z,22.11
2019-05-29T12:30:56.909Z,22.43
2019-05-29T12:33:23.103Z,22.89
2019-05-29T12:35:52.872Z,22.99
2019-05-29T13:13:17.617Z,22.51
2019-05-29T13:15:43.648Z,21.69
2019-05-29T13:18:10.351Z,20.93
2019-05-29T13:20:36.918Z,19.33
2019-05-29T13:23:05.472Z,20.08
2019-05-29T13:25:31.180Z,19.94
2019-05-29T13:27:59.506Z,20.02
2019-05-29T13:30:26.043Z,19.93
2019-05-29T13:32:52.047Z,19.70
2019-05-29T13:35:22.042Z,19.38
2019-05-29T13:37:48.145Z,19.29
2019-05-29T13:40:14.664Z,19.58
2019-05-29T13:42:42.561Z,20.01
2019-05-29T13:45:17.940Z,20.33
2019-05-29T13:47:38.002Z,20.69
2019-05-29T13:50:12.077Z,20.85
2019-05-29T13:52:36.172Z,20.73
2019-05-29T13:55:05.481Z,20.25
2019-05-29T13:57:31.991Z,20.04
2019-05-29T14:00:00.143Z,20.22
2019-05-29T14:02:28.671Z,19.38
2019-05-29T14:04:55.176Z,20.52
2019-05-29T14:07:21.264Z,19.35
2019-05-29T14:09:47.367Z,20.56
2019-05-29T14:12:13.907Z,20.95
2019-05-29T14:14:40.228Z,21.25
2019-05-29T14:17:06.679Z,21.48
2019-05-29T14:19:32.898Z,21.29
2019-05-29T14:21:58.943Z,21.05
2019-05-29T14:24:29.500Z,20.79
2019-05-29T14:26:55.167Z,20.71
2019-05-29T14:29:22.313Z,20.62
2019-05-29T14:31:49.664Z,20.39
2019-05-29T14:34:15.691Z,20.50
2019-05-29T14:36:42.756Z,20.64
2019-05-29T14:39:10.231Z,20.77
2019-05-29T14:41:36.700Z,20.62
2019-05-29T14:44:03.731Z,20.70
2019-05-29T14:46:30.033Z,21.09
2019-05-29T14:48:58.343Z,21.39
2019-05-29T14:51:24.720Z,21.67
2019-05-29T14:53:50.965Z,21.89
2019-05-29T14:56:16.991Z,21.86
2019-05-29T14:58:43.130Z,21.91
2019-05-29T15:01:09.551Z,21.91
2019-05-29T15:03:35.498Z,21.90
2019-05-29T15:06:03.455Z,21.73
2019-05-29T15:08:30.091Z,21.88
2019-05-29T15:10:56.273Z,21.89
2019-05-29T15:13:22.308Z,22.06
2019-05-29T15:15:48.683Z,22.31
2019-05-29T15:18:18.541Z,22.37
2019-05-29T15:20:43.045Z,22.35
2019-05-29T15:23:09.771Z,22.25
2019-05-29T15:25:35.809Z,21.94
2019-05-29T15:28:02.102Z,21.66
2019-05-29T15:30:28.693Z,21.26
2019-05-29T15:32:55.357Z,21.14
2019-05-29T15:35:24.790Z,21.07
2019-05-29T15:37:51.268Z,20.69
2019-05-29T15:40:17.702Z,20.19
2019-05-29T15:42:44.200Z,19.94
2019-05-29T15:45:11.869Z,19.73
2019-05-29T15:47:38.276Z,19.55
2019-05-29T15:50:09.206Z,19.52
2019-05-29T15:52:36.330Z,19.51
2019-05-29T15:55:21.295Z,19.49
2019-05-29T15:57:32.904Z,19.52
2019-05-29T15:59:59.078Z,19.57
2019-05-29T16:02:26.165Z,19.60
2019-05-29T16:04:52.313Z,19.60
2019-05-29T16:07:18.822Z,19.81
2019-05-29T16:09:44.937Z,20.16
2019-05-29T16:12:16.687Z,20.45
2019-05-29T16:15:00.665Z,20.45
2019-05-29T16:17:43.540Z,20.24
2019-05-29T16:20:25.078Z,19.93
2019-05-29T16:23:08.678Z,19.60
2019-05-29T16:25:56.474Z,19.37
2019-05-29T16:28:38.446Z,19.18
2019-05-29T16:31:27.846Z,17.82
2019-05-29T16:33:58.022Z,18.75
2019-05-29T16:36:24.489Z,17.36
2019-05-29T16:38:50.662Z,18.43
2019-05-29T16:41:17.920Z,18.44
2019-05-29T16:43:44.318Z,18.54
2019-05-29T16:46:14.220Z,18.71
2019-05-29T16:48:38.418Z,18.94
2019-05-29T16:51:07.387Z,19.14
2019-05-29T16:53:33.490Z,19.25
2019-05-29T16:55:59.620Z,19.26
2019-05-29T16:58:26.442Z,19.28
2019-05-29T17:00:52.871Z,19.17
2019-05-29T17:03:19.722Z,17.92
2019-05-29T17:05:46.457Z,18.84
2019-05-29T17:08:14.042Z,18.66
2019-05-29T17:10:40.469Z,18.57
2019-05-29T17:13:07.073Z,18.48
2019-05-29T17:15:33.435Z,18.38
2019-05-29T17:18:00.055Z,18.32
2019-05-29T17:20:39.011Z,18.29
2019-05-29T17:23:05.314Z,18.28
2019-05-29T17:25:31.785Z,18.27
2019-05-29T17:28:02.033Z,18.21
2019-05-29T17:30:34.063Z,18.13
2019-05-29T17:33:00.251Z,17.04
2019-05-29T17:35:26.443Z,18.17
2019-05-29T17:37:53.163Z,18.35
2019-05-29T17:40:19.494Z,18.52
2019-05-29T17:42:45.512Z,18.67
2019-05-29T17:45:13.147Z,18.68
2019-05-29T17:47:39.980Z,18.56
2019-05-29T17:50:07.354Z,18.46
2019-05-29T17:52:33.800Z,18.30
2019-05-29T17:54:59.844Z,18.20
2019-05-29T17:57:26.165Z,18.22
2019-05-29T17:59:52.248Z,18.25
2019-05-29T18:02:18.500Z,18.27
2019-05-29T18:04:44.508Z,18.23
2019-05-29T18:07:11.010Z,18.13
2019-05-29T18:09:37.390Z,17.97
2019-05-29T18:12:06.675Z,17.80
2019-05-29T18:14:33.297Z,17.65
2019-05-29T18:16:59.588Z,17.48
2019-05-29T18:19:26.066Z,17.33
2019-05-29T18:21:52.383Z,17.17
2019-05-29T18:24:19.529Z,17.01
2019-05-29T18:26:47.384Z,16.87
2019-05-29T18:29:14.248Z,16.75
2019-05-29T18:31:40.378Z,16.64
2019-05-29T18:34:06.526Z,16.55
2019-05-29T18:36:32.808Z,16.48
2019-05-29T18:38:58.883Z,16.39
2019-05-29T18:41:26.382Z,16.31
2019-05-29T18:43:53.264Z,16.22
2019-05-29T18:46:19.339Z,16.10
2019-05-29T18:48:45.353Z,15.98
2019-05-29T18:51:11.537Z,15.62
2019-05-29T18:53:37.834Z,15.77
2019-05-29T18:56:03.981Z,15.71
2019-05-29T18:58:30.743Z,15.58
2019-05-29T19:00:57.180Z,15.49
2019-05-29T19:03:23.528Z,15.38
2019-05-29T19:05:49.710Z,15.29
2019-05-29T19:08:15.860Z,13.99
2019-05-29T19:10:42.100Z,15.15
2019-05-29T19:13:08.550Z,15.04
2019-05-29T19:15:34.655Z,14.94
2019-05-29T19:18:01.076Z,14.83
2019-05-29T19:20:28.484Z,14.74
2019-05-29T19:22:54.813Z,14.65
2019-05-29T19:25:20.851Z,14.56
2019-05-29T19:27:46.946Z,14.49
2019-05-29T19:30:13.390Z,14.37
2019-05-29T19:32:39.799Z,14.31
2019-05-29T19:35:06.656Z,14.26
2019-05-29T19:37:34.042Z,14.18
2019-05-29T19:40:00.862Z,14.08
2019-05-29T19:42:28.077Z,14.00
2019-05-29T19:44:54.511Z,13.91
2019-05-29T19:47:21.083Z,13.85
2019-05-29T19:49:47.327Z,13.77
2019-05-29T19:52:13.934Z,13.70
2019-05-29T19:54:40.310Z,12.10
2019-05-29T19:57:06.339Z,13.58
2019-05-29T19:59:32.394Z,13.49
2019-05-29T20:01:58.732Z,13.45
2019-05-29T20:04:24.784Z,13.39
2019-05-29T20:06:50.687Z,13.30
2019-05-29T20:09:17.215Z,13.25
2019-05-29T20:11:43.527Z,13.18
2019-05-29T20:14:09.681Z,13.11
2019-05-29T20:16:36.257Z,13.07
2019-05-29T20:19:03.073Z,13.01
2019-05-29T20:21:30.555Z,12.97
2019-05-29T20:23:57.035Z,12.92
2019-05-29T20:26:22.959Z,12.83
2019-05-29T20:28:49.004Z,12.77
2019-05-29T20:31:15.039Z,12.71
2019-05-29T20:33:41.334Z,12.66
2019-05-29T20:36:07.600Z,12.56
2019-05-29T20:38:35.043Z,12.50
2019-05-29T20:41:01.276Z,12.43
2019-05-29T20:43:27.470Z,12.36
2019-05-29T20:45:53.706Z,12.29
2019-05-29T20:48:20.180Z,12.21
2019-05-29T20:50:46.407Z,12.15
2019-05-29T20:53:12.816Z,12.10
2019-05-29T20:55:39.811Z,12.03
2019-05-29T20:58:21.516Z,11.63
2019-05-29T21:00:34.416Z,11.93
2019-05-29T21:03:00.682Z,11.86
2019-05-29T21:05:26.781Z,11.82
2019-05-29T21:07:53.129Z,11.78
2019-05-29T21:10:20.484Z,11.75
2019-05-29T21:12:47.738Z,11.70
2019-05-29T21:15:14.710Z,11.66
2019-05-29T21:17:42.107Z,11.59
2019-05-29T21:20:08.870Z,11.54
2019-05-29T21:22:36.426Z,11.52
2019-05-29T21:25:09.590Z,11.46
2019-05-29T21:27:35.075Z,11.42
2019-05-29T21:30:01.709Z,11.39
2019-05-29T21:32:29.565Z,11.35
2019-05-29T21:34:55.807Z,11.32
2019-05-29T21:37:21.892Z,11.28
2019-05-29T21:39:47.904Z,11.23
2019-05-29T21:42:14.199Z,10.92
2019-05-29T21:44:40.720Z,11.14
2019-05-29T21:47:06.870Z,11.08
2019-05-29T21:49:33.312Z,11.01
2019-05-29T21:51:59.477Z,10.96
2019-05-29T21:54:25.419Z,10.93
2019-05-29T21:56:52.011Z,10.91
2019-05-29T21:59:18.164Z,9.43
2019-05-29T22:01:44.393Z,10.79
2019-05-29T22:04:12.112Z,10.75
2019-05-29T22:06:38.533Z,10.71
2019-05-29T22:09:08.368Z,10.70
2019-05-29T22:11:34.542Z,10.41
2019-05-29T22:14:00.705Z,10.67
2019-05-29T22:16:27.294Z,10.63
2019-05-29T22:18:54.901Z,10.59
2019-05-29T22:21:21.808Z,10.57
2019-05-29T22:23:47.907Z,10.54
2019-05-29T22:26:14.322Z,10.51
2019-05-29T22:28:40.683Z,10.48
2019-05-29T22:31:06.815Z,10.44
2019-05-29T22:33:34.171Z,8.95
2019-05-29T22:36:01.751Z,10.35
2019-05-29T22:38:27.952Z,10.30
2019-05-29T22:40:55.501Z,10.23
2019-05-29T22:43:21.910Z,10.19
2019-05-29T22:45:48.024Z,10.15
2019-05-29T22:48:14.417Z,10.09
2019-05-29T22:50:40.437Z,10.04
2019-05-29T22:53:06.345Z,9.99
2019-05-29T22:55:32.848Z,9.94
2019-05-29T22:58:00.057Z,9.88
2019-05-29T23:00:26.349Z,9.83
2019-05-29T23:02:54.004Z,9.80
2019-05-29T23:05:20.256Z,9.75
2019-05-29T23:07:46.619Z,9.73
2019-05-29T23:10:13.204Z,9.69
2019-05-29T23:12:39.380Z,9.65
2019-05-29T23:15:06.346Z,9.61
2019-05-29T23:17:32.478Z,9.59
2019-05-29T23:20:00.595Z,9.57
2019-05-29T23:22:27.094Z,9.51
2019-05-29T23:24:53.126Z,9.51
2019-05-29T23:27:19.472Z,9.47
2019-05-29T23:29:48.843Z,9.46
2019-05-29T23:32:13.563Z,9.44
2019-05-29T23:34:40.100Z,9.40
2019-05-29T23:37:06.261Z,9.37
2019-05-29T23:39:32.291Z,9.29
2019-05-29T23:41:59.380Z,9.25
2019-05-29T23:44:25.583Z,9.21
2019-05-29T23:46:51.736Z,9.17
2019-05-29T23:49:18.046Z,9.11
2019-05-29T23:51:44.446Z,9.03
2019-05-29T23:54:10.452Z,8.95
2019-05-29T23:56:36.961Z,8.89
2019-05-29T23:59:04.117Z,8.85
